Time;durP1;ratioP1;P1;durP2;ratioP2;P2;SDS_P1;SDS_P2;PMS_P1;PMS_P2;Temp;Humidity;BMP_temperature;BMP_pressure;BME280_temperature;BME280_humidity;BME280_pressure;Samples;Min_cycle;Max_cycle;Signal;HPM_P1;HPM_P2
2023/01/12 00:02:13;;;;;;;14.77;3.67;;;;;;;7.06;100.00;101016.75;4955704;29;20471;-77
2023/01/12 00:04:38;;;;;;;16.75;3.63;;;;;;;7.11;100.00;101019.13;4955573;29;20023;-78
2023/01/12 00:07:13;;;;;;;11.30;3.45;;;;;;;7.10;100.00;101002.06;4955612;29;20390;-78
2023/01/12 00:09:38;;;;;;;12.50;3.70;;;;;;;7.15;100.00;101005.22;4937565;28;20399;-78
2023/01/12 00:12:06;;;;;;;15.80;3.90;;;;;;;7.16;100.00;101001.75;4955446;28;20042;-79
2023/01/12 00:14:36;;;;;;;13.82;4.40;;;;;;;7.05;100.00;100980.88;4955611;28;20062;-78
2023/01/12 00:17:03;;;;;;;18.15;4.38;;;;;;;7.08;100.00;100973.03;4955380;28;20090;-76
2023/01/12 00:19:28;;;;;;;15.48;4.80;;;;;;;7.26;100.00;101002.16;4955296;28;20055;-75
2023/01/12 00:22:05;;;;;;;13.27;3.30;;;;;;;7.22;100.00;100988.66;4955257;29;20066;-76
2023/01/12 00:24:46;;;;;;;14.75;3.47;;;;;;;7.16;100.00;100971.78;4954884;28;20031;-77
2023/01/12 00:27:18;;;;;;;12.10;3.17;;;;;;;7.29;100.00;101004.63;4955315;28;20100;-74
2023/01/12 00:29:43;;;;;;;16.08;3.85;;;;;;;7.27;100.00;100991.00;4954980;28;20023;-76
2023/01/12 00:32:14;;;;;;;15.35;3.72;;;;;;;7.29;100.00;100994.34;4954970;29;20106;-75
2023/01/12 00:34:39;;;;;;;18.15;3.83;;;;;;;7.21;100.00;100966.44;4955056;29;20047;-74
2023/01/12 00:37:05;;;;;;;15.55;3.13;;;;;;;7.31;100.00;100967.66;4954599;29;20027;-75
2023/01/12 00:39:30;;;;;;;19.00;4.00;;;;;;;7.20;100.00;100959.63;4954855;29;20031;-77
2023/01/12 00:47:23;;;;;;;17.27;3.90;;;;;;;7.32;100.00;100948.78;4955159;28;20046;-76
2023/01/12 00:49:49;;;;;;;11.82;2.88;;;;;;;7.34;100.00;100957.25;4955182;29;20031;-75
2023/01/12 00:52:17;;;;;;;18.30;3.67;;;;;;;7.25;100.00;100937.13;4955033;29;20110;-76
2023/01/12 00:54:42;;;;;;;13.07;3.30;;;;;;;7.25;100.00;100932.00;4954649;29;20098;-75
2023/01/12 00:57:08;;;;;;;14.75;4.32;;;;;;;7.28;100.00;100946.44;4954911;29;20134;-78
2023/01/12 00:59:34;;;;;;;15.30;3.28;;;;;;;7.20;100.00;100936.53;4954963;28;20027;-76
2023/01/12 01:01:59;;;;;;;13.55;3.17;;;;;;;7.24;100.00;100944.91;4954856;28;20062;-76
2023/01/12 01:04:25;;;;;;;13.90;3.30;;;;;;;7.25;100.00;100941.44;4954619;28;20042;-76
2023/01/12 01:06:50;;;;;;;15.27;3.42;;;;;;;7.24;100.00;100940.59;4954988;29;20483;-76
2023/01/12 01:09:16;;;;;;;12.70;3.70;;;;;;;7.24;100.00;100937.19;4954597;29;20027;-76
2023/01/12 01:11:41;;;;;;;15.88;3.45;;;;;;;7.03;100.00;100892.81;4954708;29;20031;-76
2023/01/12 01:14:07;;;;;;;15.68;3.53;;;;;;;7.25;100.00;100926.03;4954775;29;20503;-76
2023/01/12 01:16:33;;;;;;;13.95;3.92;;;;;;;7.14;100.00;100909.38;4954664;28;20563;-76
2023/01/12 01:18:59;;;;;;;16.55;3.80;;;;;;;7.25;100.00;100918.31;4954534;28;20031;-76
2023/01/12 01:21:25;;;;;;;14.95;4.15;;;;;;;7.23;100.00;100922.69;4954560;29;20032;-76
2023/01/12 01:23:51;;;;;;;16.25;4.30;;;;;;;7.11;100.00;100893.31;4954381;28;20497;-76
2023/01/12 01:26:19;;;;;;;19.52;4.53;;;;;;;7.11;100.00;100880.47;4954632;29;20028;-77
2023/01/12 01:28:45;;;;;;;18.15;4.13;;;;;;;7.22;100.00;100906.47;4954735;29;20117;-76
2023/01/12 01:31:13;;;;;;;19.45;5.40;;;;;;;7.25;100.00;100908.88;4954522;29;20047;-76
2023/01/12 01:33:40;;;;;;;17.50;4.70;;;;;;;7.21;100.00;100896.25;4954358;29;20058;-75
2023/01/12 01:36:06;;;;;;;17.38;4.15;;;;;;;7.19;100.00;100892.03;4954390;28;20035;-75
2023/01/12 01:38:31;;;;;;;22.58;4.55;;;;;;;7.21;100.00;100898.84;4954578;29;20070;-75
2023/01/12 01:40:57;;;;;;;21.00;4.78;;;;;;;7.19;100.00;100894.59;4954333;28;20432;-75
2023/01/12 01:43:25;;;;;;;18.75;4.93;;;;;;;7.14;100.00;100898.28;4954467;29;20028;-76
2023/01/12 01:46:06;;;;;;;11.70;3.97;;;;;;;7.16;100.00;100901.59;4954626;29;20034;-75
2023/01/12 01:48:35;;;;;;;16.13;4.13;;;;;;;7.15;100.00;100903.34;4954329;28;20035;-75
2023/01/12 01:51:08;;;;;;;15.98;4.15;;;;;;;7.15;100.00;100897.38;4954215;29;20030;-75
2023/01/12 01:53:36;;;;;;;24.27;4.75;;;;;;;7.14;100.00;100888.00;4954376;28;20463;-75
2023/01/12 01:56:17;;;;;;;26.95;5.13;;;;;;;7.12;100.00;100870.13;4954232;28;20461;-75
2023/01/12 01:58:51;;;;;;;22.05;4.25;;;;;;;7.11;100.00;100881.28;4954324;29;20035;-75
2023/01/12 02:01:16;;;;;;;17.02;4.35;;;;;;;7.13;100.00;100876.91;4954356;28;20027;-75
2023/01/12 02:03:44;;;;;;;22.13;4.35;;;;;;;7.11;100.00;100868.44;4954115;29;20020;-74
2023/01/12 02:06:09;;;;;;;17.52;4.25;;;;;;;7.11;100.00;100863.31;4954101;29;20031;-75
2023/01/12 02:08:54;;;;;;;18.88;4.35;;;;;;;6.90;100.00;100830.97;4954186;29;20027;-75
2023/01/12 02:17:11;;;;;;;21.45;4.38;;;;;;;7.09;100.00;100869.44;4954552;28;20038;-76
2023/01/12 02:19:45;;;;;;;20.30;4.47;;;;;;;7.08;100.00;100862.63;4954132;28;20086;-75
2023/01/12 02:22:16;;;;;;;17.52;4.20;;;;;;;7.07;100.00;100845.53;4954066;28;20035;-75
2023/01/12 02:24:55;;;;;;;18.48;4.35;;;;;;;7.06;100.00;100851.59;4957153;28;20558;-74
2023/01/12 02:27:36;;;;;;;22.23;4.07;;;;;;;7.04;100.00;100838.84;4957753;29;20035;-74
2023/01/12 02:30:22;;;;;;;20.70;4.18;;;;;;;7.04;100.00;100846.53;4957542;28;20035;-75
2023/01/12 02:33:18;;;;;;;18.75;4.38;;;;;;;6.99;100.00;100840.81;4957238;29;20078;-74
2023/01/12 02:36:00;;;;;;;17.55;4.25;;;;;;;6.97;100.00;100813.53;4957427;29;20039;-75
2023/01/12 02:38:44;;;;;;;22.80;4.95;;;;;;;7.10;100.00;100809.47;4957345;28;20118;-75
2023/01/12 02:44:38;;;;;;;22.40;5.40;;;;;;;7.14;100.00;100805.84;4898510;29;20044;-75
2023/01/12 02:47:08;;;;;;;19.98;3.97;;;;;;;7.14;100.00;100809.22;4898095;29;20241;-75
2023/01/12 02:49:40;;;;;;;14.13;3.33;;;;;;;7.14;100.00;100808.41;4898188;29;20576;-75
2023/01/12 02:52:11;;;;;;;22.25;5.07;;;;;;;7.16;100.00;100806.59;4897989;29;20484;-75
2023/01/12 02:54:39;;;;;;;18.20;4.32;;;;;;;7.17;100.00;100791.09;4898079;29;20488;-76
2023/01/12 02:57:07;;;;;;;17.05;3.90;;;;;;;7.17;100.00;100795.41;4897802;29;20067;-76
2023/01/12 02:59:36;;;;;;;15.40;4.22;;;;;;;7.17;100.00;100791.09;4897891;29;20044;-75
2023/01/12 03:02:15;;;;;;;15.90;4.50;;;;;;;7.18;100.00;100782.50;4897875;29;20100;-74
2023/01/12 03:04:40;;;;;;;17.80;4.72;;;;;;;7.18;100.00;100782.50;4897796;29;20384;-76
2023/01/12 03:07:28;;;;;;;18.75;4.03;;;;;;;7.17;100.00;100783.38;4897841;29;20036;-75
2023/01/12 03:10:11;;;;;;;17.83;3.88;;;;;;;7.15;100.00;100767.25;4897676;29;20032;-76
2023/01/12 03:12:38;;;;;;;20.30;3.30;;;;;;;6.95;100.00;100722.91;4897478;29;20396;-74
2023/01/12 03:15:07;;;;;;;16.08;3.33;;;;;;;7.20;100.00;100749.03;4897523;29;20061;-75
2023/01/12 03:17:39;;;;;;;16.25;3.78;;;;;;;7.19;100.00;100737.13;4897721;29;20137;-75
2023/01/12 03:20:12;;;;;;;16.92;3.95;;;;;;;7.18;100.00;100736.28;4904901;29;20065;-75
2023/01/12 03:22:37;;;;;;;19.58;3.63;;;;;;;7.19;100.00;100727.66;4956781;29;20368;-76
2023/01/12 03:25:12;;;;;;;18.27;3.55;;;;;;;7.20;100.00;100725.94;4956485;29;20051;-74
2023/01/12 03:27:42;;;;;;;14.43;3.50;;;;;;;7.21;100.00;100716.50;4956320;28;20035;-74
2023/01/12 03:30:16;;;;;;;19.63;4.57;;;;;;;7.13;100.00;100707.44;4956377;28;20032;-75
2023/01/12 03:32:42;;;;;;;15.85;3.85;;;;;;;7.14;100.00;100716.78;4956333;29;20042;-78
2023/01/12 03:35:08;;;;;;;21.88;3.92;;;;;;;7.13;100.00;100714.31;4955409;28;20102;-74
2023/01/12 03:37:38;;;;;;;18.38;4.30;;;;;;;7.17;100.00;100726.06;4956159;29;20082;-77
2023/01/12 03:40:21;;;;;;;16.55;3.67;;;;;;;7.17;100.00;100700.38;4956211;29;20078;-73
2023/01/12 03:43:07;;;;;;;15.70;3.25;;;;;;;7.18;100.00;100707.22;4955956;29;20023;-74
2023/01/12 03:45:46;;;;;;;16.13;3.70;;;;;;;7.13;100.00;100692.03;4956228;28;20027;-75
2023/01/12 03:48:19;;;;;;;15.10;3.60;;;;;;;7.14;100.00;100680.84;4956048;28;20027;-75
2023/01/12 03:51:11;;;;;;;12.00;2.88;;;;;;;7.16;100.00;100679.00;4955960;28;20511;-76
2023/01/12 03:53:39;;;;;;;11.73;3.33;;;;;;;7.16;100.00;100670.47;4956169;28;20045;-74
2023/01/12 03:56:08;;;;;;;10.73;3.25;;;;;;;6.97;100.00;100631.25;4956000;29;20431;-74
2023/01/12 03:58:34;;;;;;;13.38;3.17;;;;;;;7.13;100.00;100650.94;4955644;28;20039;-75
2023/01/12 04:01:01;;;;;;;15.95;3.08;;;;;;;7.13;100.00;100645.78;4955894;29;20031;-75
2023/01/12 04:03:27;;;;;;;12.65;2.55;;;;;;;7.01;100.00;100625.91;4955791;29;20020;-75
2023/01/12 04:05:52;;;;;;;14.48;2.85;;;;;;;7.12;100.00;100648.44;4955880;29;20046;-75
2023/01/12 04:08:18;;;;;;;12.88;2.83;;;;;;;7.11;100.00;100628.81;4955872;29;20054;-75
2023/01/12 04:10:43;;;;;;;15.45;3.08;;;;;;;6.95;100.00;100603.09;4955647;28;20035;-75
2023/01/12 04:13:09;;;;;;;11.88;2.80;;;;;;;6.98;100.00;100597.81;4955559;29;20055;-75
2023/01/12 04:15:37;;;;;;;17.25;2.80;;;;;;;7.11;100.00;100598.00;4955649;28;20097;-76
2023/01/12 04:18:04;;;;;;;13.27;2.70;;;;;;;7.11;100.00;100590.31;4938321;29;20043;-73
2023/01/12 04:20:29;;;;;;;15.88;3.33;;;;;;;7.12;100.00;100577.38;4955575;29;20023;-75
2023/01/12 04:22:54;;;;;;;18.27;2.83;;;;;;;7.08;100.00;100560.50;4955563;29;20041;-74
2023/01/12 04:25:21;;;;;;;14.93;3.28;;;;;;;7.03;100.00;100541.91;4955453;29;20110;-75
2023/01/12 04:27:55;;;;;;;14.23;3.20;;;;;;;7.15;100.00;100571.25;4955199;29;20028;-74
2023/01/12 04:30:23;;;;;;;15.80;3.85;;;;;;;7.15;100.00;100560.97;4955297;28;20031;-75
2023/01/12 04:32:49;;;;;;;13.02;3.13;;;;;;;7.02;100.00;100524.84;4955164;29;20035;-75
2023/01/12 04:35:15;;;;;;;14.15;3.28;;;;;;;7.06;100.00;100520.38;4955259;29;20078;-76
2023/01/12 04:37:41;;;;;;;14.00;3.60;;;;;;;7.15;100.00;100518.16;4955104;29;20054;-74
2023/01/12 04:40:08;;;;;;;13.50;3.72;;;;;;;7.16;100.00;100506.13;4955305;29;20027;-74
2023/01/12 04:45:18;;;;;;;16.75;3.83;;;;;;;7.14;100.00;100493.38;4955025;28;20035;-75
2023/01/12 04:47:43;;;;;;;12.23;3.15;;;;;;;7.06;100.00;100490.41;4954881;29;20027;-74
2023/01/12 04:50:09;;;;;;;16.05;3.25;;;;;;;7.14;100.00;100507.97;4955095;29;20031;-75
2023/01/12 04:52:36;;;;;;;12.90;3.00;;;;;;;7.00;100.00;100472.78;4954881;29;20038;-75
2023/01/12 04:55:03;;;;;;;14.25;2.90;;;;;;;7.10;100.00;100512.44;4955008;29;20431;-76
2023/01/12 04:57:28;;;;;;;15.50;3.08;;;;;;;7.09;100.00;100503.09;4954639;28;20019;-75
2023/01/12 04:59:53;;;;;;;13.35;4.20;;;;;;;7.13;100.00;100508.88;4955317;29;20073;-75
2023/01/12 05:02:19;;;;;;;17.42;3.63;;;;;;;7.10;100.00;100494.47;4955223;29;20027;-75
2023/01/12 05:04:47;;;;;;;14.02;3.45;;;;;;;7.12;100.00;100497.78;4954864;29;20439;-74
2023/01/12 05:07:12;;;;;;;16.55;2.83;;;;;;;7.15;100.00;100510.44;4954798;29;20105;-74
2023/01/12 05:12:22;;;;;;;17.35;3.17;;;;;;;7.08;100.00;100465.50;4955008;28;20474;-74
2023/01/12 05:14:48;;;;;;;16.73;3.40;;;;;;;6.98;100.00;100460.91;4954682;29;20050;-74
2023/01/12 05:17:14;;;;;;;14.30;3.22;;;;;;;7.17;100.00;100492.38;4937472;29;20075;-74
2023/01/12 05:19:39;;;;;;;14.88;3.08;;;;;;;7.15;100.00;100484.75;4954601;28;20102;-75
2023/01/12 05:22:04;;;;;;;16.83;2.92;;;;;;;7.16;100.00;100501.00;4954857;28;20110;-74
2023/01/12 05:24:30;;;;;;;15.30;3.30;;;;;;;7.16;100.00;100499.25;4954692;28;20061;-75
2023/01/12 05:26:55;;;;;;;17.10;2.90;;;;;;;7.16;100.00;100496.69;4954519;29;20376;-75
2023/01/12 05:29:20;;;;;;;15.38;3.22;;;;;;;7.17;100.00;100488.06;4954476;28;20150;-74
2023/01/12 05:31:46;;;;;;;11.98;2.72;;;;;;;7.08;100.00;100459.50;4954561;29;20039;-75
2023/01/12 05:34:12;;;;;;;14.32;2.60;;;;;;;7.04;100.00;100460.59;4954357;29;20089;-74
2023/01/12 05:36:38;;;;;;;17.65;3.33;;;;;;;6.95;100.00;100428.53;4954655;28;20094;-74
2023/01/12 05:39:04;;;;;;;12.55;2.83;;;;;;;7.14;100.00;100456.59;4954460;29;20075;-75
2023/01/12 05:41:29;;;;;;;13.45;2.80;;;;;;;7.08;100.00;100451.78;4954352;28;20034;-75
2023/01/12 05:43:55;;;;;;;13.10;3.13;;;;;;;7.09;100.00;100441.47;4954322;29;20058;-75
2023/01/12 05:46:24;;;;;;;19.10;4.03;;;;;;;7.16;100.00;100460.75;4954594;28;20035;-75
2023/01/12 05:48:50;;;;;;;14.68;2.53;;;;;;;7.16;100.00;100457.34;4954248;29;20027;-75
2023/01/12 05:51:16;;;;;;;15.00;2.67;;;;;;;7.17;100.00;100466.69;4954462;28;20038;-74
2023/01/12 05:53:42;;;;;;;12.13;2.75;;;;;;;7.18;100.00;100463.25;4954408;28;20102;-74
2023/01/12 05:56:16;;;;;;;15.32;3.08;;;;;;;7.18;100.00;100461.50;4954364;29;20119;-74
2023/01/12 05:58:41;;;;;;;14.48;2.80;;;;;;;7.17;100.00;100457.25;4955993;28;20035;-73
2023/01/12 06:01:08;;;;;;;12.40;2.60;;;;;;;7.02;100.00;100429.03;4958241;29;20106;-74
2023/01/12 06:03:34;;;;;;;10.27;2.30;;;;;;;7.16;100.00;100445.34;4958036;29;20038;-74
2023/01/12 06:05:59;;;;;;;11.10;2.08;;;;;;;7.11;100.00;100433.69;4957970;29;20027;-73
2023/01/12 06:08:24;;;;;;;11.50;2.60;;;;;;;7.24;100.00;100450.06;4958192;29;20031;-73
2023/01/12 06:10:51;;;;;;;12.18;2.45;;;;;;;7.26;100.00;100443.09;4958044;29;20063;-75
2023/01/12 06:16:04;;;;;;;10.20;2.05;;;;;;;7.13;100.00;100422.41;4957865;29;20038;-75
2023/01/12 06:18:39;;;;;;;9.10;2.35;;;;;;;7.22;100.00;100441.63;4957810;29;20492;-74
2023/01/12 06:21:06;;;;;;;12.05;2.33;;;;;;;7.29;100.00;100454.97;4957823;28;20052;-73
2023/01/12 06:23:32;;;;;;;8.95;1.80;;;;;;;7.30;100.00;100452.28;4957581;28;20028;-73
2023/01/12 06:26:02;;;;;;;11.50;2.20;;;;;;;7.32;100.00;100447.06;4957690;29;20031;-73
2023/01/12 06:28:28;;;;;;;8.60;2.30;;;;;;;7.30;100.00;100446.34;4957645;28;20107;-74
2023/01/12 06:31:05;;;;;;;6.72;2.33;;;;;;;7.22;100.00;100427.94;4957567;29;20023;-74
2023/01/12 06:33:31;;;;;;;9.30;2.00;;;;;;;7.28;100.00;100432.75;4957282;29;20039;-74
2023/01/12 06:35:56;;;;;;;10.82;1.98;;;;;;;7.32;100.00;100435.06;4957594;29;20114;-73
2023/01/12 06:38:24;;;;;;;8.13;1.90;;;;;;;7.40;100.00;100453.44;4957347;28;20418;-74
2023/01/12 06:40:50;;;;;;;6.60;1.90;;;;;;;7.41;100.00;100449.97;4957315;28;20386;-74
2023/01/12 06:43:15;;;;;;;9.73;2.28;;;;;;;7.43;100.00;100455.00;4957364;29;20035;-74
2023/01/12 06:45:41;;;;;;;10.95;3.00;;;;;;;7.34;100.00;100435.78;4939803;29;20027;-74
2023/01/12 06:48:07;;;;;;;10.77;2.53;;;;;;;7.39;100.00;100443.25;4957330;29;20028;-74
2023/01/12 06:50:33;;;;;;;6.80;2.38;;;;;;;7.30;100.00;100421.47;4957017;29;20391;-74
2023/01/12 06:53:00;;;;;;;9.15;2.38;;;;;;;7.50;100.00;100468.34;4956993;28;20027;-73
2023/01/12 06:55:25;;;;;;;9.05;2.13;;;;;;;7.21;100.00;100405.75;4957375;29;20030;-73
2023/01/12 06:57:51;;;;;;;8.57;2.05;;;;;;;7.52;100.00;100462.19;4957079;29;20035;-74
2023/01/12 07:00:16;;;;;;;7.53;1.90;;;;;;;7.48;100.00;100458.97;4957014;29;20024;-75
2023/01/12 07:02:41;;;;;;;7.88;1.98;;;;;;;7.55;100.00;100462.03;4956998;28;20483;-76
2023/01/12 07:05:07;;;;;;;9.38;2.10;;;;;;;7.51;100.00;100460.53;4956981;29;20471;-75
2023/01/12 07:07:33;;;;;;;7.82;2.47;;;;;;;7.58;100.00;100464.44;4939435;29;20047;-73
2023/01/12 07:09:58;;;;;;;9.60;2.05;;;;;;;7.60;100.00;100472.88;4956850;28;20479;-74
2023/01/12 07:12:23;;;;;;;9.20;2.00;;;;;;;7.60;100.00;100470.31;4955410;29;20031;-73
2023/01/12 07:14:49;;;;;;;7.25;2.42;;;;;;;7.55;100.00;100459.44;4957217;28;20051;-74
2023/01/12 07:17:15;;;;;;;5.43;1.83;;;;;;;7.36;100.00;100425.44;4957175;29;20491;-75
2023/01/12 07:19:41;;;;;;;6.10;1.58;;;;;;;7.49;100.00;100434.13;4956363;29;20035;-74
2023/01/12 07:22:06;;;;;;;8.90;2.10;;;;;;;7.64;100.00;100461.50;4939564;29;20027;-74
2023/01/12 07:24:31;;;;;;;8.13;2.03;;;;;;;7.65;100.00;100475.19;4956518;29;20387;-74
2023/01/12 07:26:57;;;;;;;6.70;1.70;;;;;;;7.61;100.00;100451.41;4956479;29;20133;-73
2023/01/12 07:29:23;;;;;;;8.02;1.85;;;;;;;7.66;100.00;100485.38;4956715;29;20027;-73
2023/01/12 07:31:49;;;;;;;8.50;1.30;;;;;;;7.53;100.00;100456.16;4956223;29;20043;-73
2023/01/12 07:34:14;;;;;;;4.85;1.52;;;;;;;7.67;100.00;100476.78;4956208;28;20055;-74
2023/01/12 07:36:40;;;;;;;9.63;1.60;;;;;;;7.40;100.00;100444.91;4956361;28;20027;-74
2023/01/12 07:39:07;;;;;;;5.00;1.80;;;;;;;7.67;100.00;100492.19;4956020;28;20516;-75
2023/01/12 07:44:16;;;;;;;4.28;1.83;;;;;;;7.69;100.00;100494.66;4956299;29;20042;-75
2023/01/12 07:46:41;;;;;;;11.68;2.00;;;;;;;7.72;100.00;100495.31;4956212;29;20031;-74
2023/01/12 07:49:07;;;;;;;6.47;2.00;;;;;;;7.73;100.00;100501.28;4956272;29;20054;-75
2023/01/12 07:51:32;;;;;;;7.45;2.97;;;;;;;7.73;100.00;100489.25;4956006;28;20059;-75
2023/01/12 07:53:57;;;;;;;6.55;2.25;;;;;;;7.75;100.00;100494.31;4955872;28;20027;-75
2023/01/12 07:56:23;;;;;;;6.50;2.17;;;;;;;7.76;100.00;100493.38;4956085;28;20024;-76
2023/01/12 07:58:48;;;;;;;8.15;2.42;;;;;;;7.69;100.00;100487.78;4955838;29;20468;-75
2023/01/12 08:01:14;;;;;;;7.00;2.38;;;;;;;7.76;100.00;100501.91;4954934;28;20031;-74
2023/01/12 08:03:40;;;;;;;5.82;2.17;;;;;;;7.76;100.00;100485.69;4956706;29;20027;-75
2023/01/12 08:06:06;;;;;;;8.30;2.30;;;;;;;7.80;100.00;100499.19;4955859;29;20090;-73
2023/01/12 08:08:32;;;;;;;7.22;2.38;;;;;;;7.83;100.00;100499.00;4955520;29;20023;-74
2023/01/12 08:11:05;;;;;;;11.13;3.00;;;;;;;7.61;100.00;100469.38;4955562;29;20027;-74
2023/01/12 08:13:30;;;;;;;5.65;2.40;;;;;;;7.85;100.00;100510.03;4955648;28;20054;-74
2023/01/12 08:16:01;;;;;;;6.38;2.22;;;;;;;7.64;100.00;100476.91;4955536;29;20475;-75
2023/01/12 08:18:32;;;;;;;8.60;2.55;;;;;;;7.87;100.00;100518.50;4955496;29;20121;-73
2023/01/12 08:21:01;;;;;;;9.35;2.50;;;;;;;7.85;100.00;100510.03;4954873;28;20038;-74
2023/01/12 08:23:33;;;;;;;6.30;2.38;;;;;;;7.91;100.00;100512.28;4955438;29;20065;-74
2023/01/12 08:26:03;;;;;;;5.68;2.13;;;;;;;7.92;100.00;100504.47;4955568;29;20070;-76
2023/01/12 08:28:42;;;;;;;7.35;2.50;;;;;;;7.78;100.00;100490.75;4955400;29;20062;-77
2023/01/12 08:31:08;;;;;;;5.03;2.10;;;;;;;7.79;100.00;100487.25;4955154;28;20028;-78
2023/01/12 08:33:35;;;;;;;7.65;2.33;;;;;;;7.97;100.00;100522.22;4955152;28;20460;-77
2023/01/12 08:36:03;;;;;;;7.43;2.45;;;;;;;7.89;100.00;100496.09;4955092;29;20027;-77
2023/01/12 08:38:29;;;;;;;6.43;2.08;;;;;;;7.83;100.00;100492.13;4954977;29;20031;-76
2023/01/12 08:46:22;;;;;;;7.05;2.20;;;;;;;8.07;100.00;100532.81;4955132;28;20103;-77
2023/01/12 08:48:47;;;;;;;4.88;2.47;;;;;;;8.02;100.00;100517.63;4955038;28;20043;-77
2023/01/12 08:51:12;;;;;;;6.20;2.35;;;;;;;8.09;100.00;100546.41;4954715;29;20019;-77
2023/01/12 08:53:38;;;;;;;5.32;2.80;;;;;;;7.90;100.00;100498.59;4954006;29;20051;-76
2023/01/12 08:56:03;;;;;;;6.15;2.67;;;;;;;7.97;100.00;100517.06;4955407;28;20061;-75
2023/01/12 08:58:30;;;;;;;7.35;2.67;;;;;;;8.15;100.00;100540.88;4955466;29;20039;-74
2023/01/12 09:00:55;;;;;;;6.65;2.83;;;;;;;8.04;100.00;100520.94;4954790;29;20390;-76
2023/01/12 09:03:21;;;;;;;7.18;2.97;;;;;;;8.12;100.00;100528.22;4954688;29;20024;-75
2023/01/12 09:05:47;;;;;;;6.20;2.80;;;;;;;8.20;100.00;100547.44;4954752;29;20510;-77
2023/01/12 09:08:13;;;;;;;8.35;3.33;;;;;;;8.22;100.00;100545.59;4954999;29;20027;-74
2023/01/12 09:10:38;;;;;;;6.43;3.15;;;;;;;8.25;100.00;100562.59;4954835;28;20538;-74
2023/01/12 09:13:03;;;;;;;7.18;3.75;;;;;;;8.26;100.00;100552.25;4954864;28;20031;-76
2023/01/12 09:15:28;;;;;;;7.28;3.20;;;;;;;8.29;100.00;100551.22;4954710;29;20435;-75
2023/01/12 09:17:54;;;;;;;6.18;3.33;;;;;;;8.33;100.00;100547.53;4936967;29;20380;-75
2023/01/12 09:20:21;;;;;;;6.70;3.42;;;;;;;8.34;100.00;100562.06;4954609;28;20046;-76
2023/01/12 09:22:46;;;;;;;8.02;3.70;;;;;;;8.17;100.00;100531.34;4954650;29;20026;-75
2023/01/12 09:25:12;;;;;;;5.53;3.00;;;;;;;8.10;100.00;100510.31;4954707;29;20031;-75
2023/01/12 09:27:37;;;;;;;5.15;3.13;;;;;;;8.33;100.00;100558.66;4954541;28;20383;-75
2023/01/12 09:30:05;;;;;;;5.50;2.92;;;;;;;8.38;100.00;100555.88;4954547;29;20031;-76
2023/01/12 09:32:30;;;;;;;5.53;2.80;;;;;;;8.28;100.00;100534.97;4954167;28;20059;-76
2023/01/12 09:34:58;;;;;;;5.45;3.08;;;;;;;8.39;100.00;100551.56;4958486;28;20042;-75
2023/01/12 09:37:24;;;;;;;6.72;2.83;;;;;;;8.37;100.00;100564.50;4940715;29;20479;-77
2023/01/12 09:39:49;;;;;;;5.47;2.83;;;;;;;8.30;100.00;100548.56;4958292;28;20125;-76
2023/01/12 09:48:02;;;;;;;4.80;2.10;;;;;;;8.52;100.00;100573.06;4958393;28;20101;-77
2023/01/12 09:50:39;;;;;;;4.93;2.20;;;;;;;8.41;100.00;100555.69;4958244;28;20027;-77
2023/01/12 09:53:10;;;;;;;3.60;1.58;;;;;;;8.53;100.00;100582.44;4958111;29;20031;-78
2023/01/12 09:56:02;;;;;;;4.47;1.70;;;;;;;8.51;100.00;100581.72;4958266;29;20050;-75
2023/01/12 09:58:40;;;;;;;5.30;1.70;;;;;;;8.56;100.00;100598.56;4958169;29;20039;-76
2023/01/12 10:01:11;;;;;;;2.85;1.40;;;;;;;8.42;100.00;100567.63;4958217;29;20031;-75
2023/01/12 10:03:40;;;;;;;;;;;;;;;8.65;100.00;100604.06;4958234;29;20025;-77
2023/01/12 10:06:12;;;;;;;3.28;1.20;;;;;;;8.72;100.00;100603.63;4958085;28;20275;-80
2023/01/12 10:08:45;;;;;;;3.20;1.30;;;;;;;8.75;100.00;100603.47;4940400;28;20038;-79
2023/01/12 10:11:24;;;;;;;3.72;1.40;;;;;;;8.67;100.00;100582.47;4958045;29;20042;-82
2023/01/12 10:13:59;;;;;;;3.00;1.25;;;;;;;8.82;100.00;100598.75;4957944;28;20016;-81
2023/01/12 10:16:29;;;;;;;3.00;1.20;;;;;;;8.67;100.00;100571.34;4957894;29;20063;-81
2023/01/12 10:19:00;;;;;;;3.00;1.20;;;;;;;8.82;100.00;100609.88;4957615;28;20034;-80
2023/01/12 10:21:28;;;;;;;2.03;1.35;;;;;;;8.62;100.00;100574.19;4957837;29;20375;-82
2023/01/12 10:23:53;;;;;;;4.05;1.50;;;;;;;8.63;100.00;100591.28;4957717;28;20035;-82
2023/01/12 10:26:24;;;;;;;3.78;1.40;;;;;;;8.78;100.00;100621.28;4957611;29;20033;-81
2023/01/12 10:28:53;;;;;;;4.35;1.40;;;;;;;8.61;100.00;100582.81;4957445;29;20026;-81
2023/01/12 10:31:24;;;;;;;2.50;1.40;;;;;;;8.70;100.00;100605.47;4957623;29;20027;-80
2023/01/12 10:34:03;;;;;;;4.38;1.40;;;;;;;8.73;100.00;100610.41;4957240;28;20051;-81
2023/01/12 10:36:29;;;;;;;4.10;1.40;;;;;;;8.72;100.00;100615.66;4957662;29;20023;-81
2023/01/12 10:39:02;;;;;;;2.83;1.38;;;;;;;8.69;100.00;100600.41;4957511;28;20046;-78
2023/01/12 10:41:29;;;;;;;2.75;1.38;;;;;;;8.53;100.00;100585.00;4957524;29;20042;-80
2023/01/12 10:43:54;;;;;;;2.60;1.40;;;;;;;8.74;100.00;100604.34;4956840;28;20736;-78
2023/01/12 10:46:22;;;;;;;2.10;1.38;;;;;;;8.61;100.00;100590.53;4957198;28;20054;-78
2023/01/12 10:48:50;;;;;;;3.13;1.30;;;;;;;8.69;100.00;100596.06;4957117;29;20023;-78
2023/01/12 10:51:21;;;;;;;3.00;1.33;;;;;;;8.73;100.00;100605.25;4957167;29;20039;-77
2023/01/12 10:53:53;;;;;;;;;;;;;;;8.72;100.00;100606.19;4957589;29;20074;-78
2023/01/12 10:56:27;;;;;;;3.10;1.00;;;;;;;8.74;100.00;100593.22;4957178;29;19914;-77
2023/01/12 10:58:57;;;;;;;1.35;1.00;;;;;;;8.57;100.00;100573.63;4956869;28;20035;-78
2023/01/12 11:01:23;;;;;;;3.13;1.08;;;;;;;8.75;100.00;100598.31;4957075;28;20027;-77
2023/01/12 11:03:48;;;;;;;1.98;1.23;;;;;;;8.72;100.00;100590.75;4956960;29;20150;-77
2023/01/12 11:06:20;;;;;;;1.40;1.20;;;;;;;8.77;100.00;100588.75;4956951;29;20391;-79
2023/01/12 11:08:46;;;;;;;2.42;1.40;;;;;;;8.56;100.00;100559.13;4956853;29;20027;-80
2023/01/12 11:11:15;;;;;;;2.35;1.30;;;;;;;8.72;100.00;100579.63;4956777;29;20027;-80
2023/01/12 11:13:40;;;;;;;3.22;1.55;;;;;;;8.85;100.00;100591.69;4956685;29;20031;-81
2023/01/12 11:16:32;;;;;;;1.63;1.30;;;;;;;8.88;100.00;100588.91;4956842;29;20035;-82
2023/01/12 11:19:12;;;;;;;2.88;1.60;;;;;;;8.88;100.00;100593.25;4953611;29;20051;-81
2023/01/12 11:21:41;;;;;;;3.10;1.55;;;;;;;8.75;100.00;100567.41;4955901;29;20031;-75
2023/01/12 11:24:34;;;;;;;2.33;1.52;;;;;;;8.92;100.00;100592.13;4956920;29;20069;-77
2023/01/12 11:27:38;;;;;;;3.00;2.08;;;;;;;8.96;100.00;100597.94;4956700;28;20034;-78
2023/01/12 11:30:19;;;;;;;3.60;2.17;;;;;;;8.97;100.00;100599.59;4956390;29;20042;-76
2023/01/12 11:33:07;;;;;;;4.30;2.22;;;;;;;8.97;100.00;100589.28;4955166;29;20048;-73
2023/01/12 11:35:56;;;;;;;3.47;2.13;;;;;;;8.99;100.00;100602.91;4956842;29;20046;-74
2023/01/12 11:38:28;;;;;;;2.47;1.98;;;;;;;8.99;100.00;100597.75;4956603;29;20383;-75
2023/01/12 11:40:57;;;;;;;3.10;1.80;;;;;;;8.79;100.00;100571.44;4955957;29;20037;-76
2023/01/12 11:43:48;;;;;;;3.30;2.00;;;;;;;8.98;100.00;100593.53;4939199;29;20046;-77
2023/01/12 11:46:25;;;;;;;2.83;1.80;;;;;;;8.97;100.00;100594.44;4956193;29;20028;-75
2023/01/12 11:49:15;;;;;;;3.35;1.70;;;;;;;8.97;100.00;100595.28;4956027;29;20454;-78
2023/01/12 11:51:41;;;;;;;2.28;1.58;;;;;;;8.83;100.00;100572.06;4956303;28;20042;-76
2023/01/12 11:54:13;;;;;;;3.92;1.40;;;;;;;8.98;100.00;100591.78;4956184;28;20427;-76
2023/01/12 11:57:00;;;;;;;2.17;1.50;;;;;;;8.98;100.00;100607.22;4954357;28;20031;-76
2023/01/12 11:59:31;;;;;;;2.35;1.40;;;;;;;8.71;100.00;100547.91;4955842;29;20043;-77
2023/01/12 12:02:06;;;;;;;3.25;1.65;;;;;;;8.93;100.00;100586.06;4955960;29;20419;-78
2023/01/12 12:04:40;;;;;;;1.83;1.33;;;;;;;8.96;100.00;100591.03;4956069;28;20023;-77
2023/01/12 12:07:21;;;;;;;2.92;1.40;;;;;;;8.80;100.00;100549.09;4955897;28;20038;-76
2023/01/12 12:10:21;;;;;;;2.58;1.50;;;;;;;8.96;100.00;100579.91;4938769;29;20043;-75